createdAt,value
2023-03-06T00:07:28.357Z,8.80
2023-03-06T00:17:28.563Z,9.40
2023-03-06T00:27:29.021Z,9.70
2023-03-06T00:37:29.026Z,8.60
2023-03-06T00:47:29.250Z,8.90
2023-03-06T00:57:29.432Z,10.20
2023-03-06T01:07:29.654Z,9.50
2023-03-06T01:17:29.837Z,8.40
2023-03-06T01:27:30.213Z,9.10
2023-03-06T01:47:30.767Z,8.60
2023-03-06T01:57:30.744Z,9.10
2023-03-06T02:07:31.004Z,7.80
2023-03-06T02:17:31.349Z,8.40
2023-03-06T02:27:31.567Z,8.90
2023-03-06T02:37:31.842Z,8.70
2023-03-06T02:47:32.130Z,7.50
2023-03-06T02:57:32.392Z,7.70
2023-03-06T03:07:32.486Z,8.80
2023-03-06T03:17:33.204Z,8.20
2023-03-06T03:27:33.227Z,8.40
2023-03-06T03:37:33.508Z,7.70
2023-03-06T03:47:33.792Z,6.80
2023-03-06T04:07:34.033Z,9.10
2023-03-06T04:17:34.319Z,6.70
2023-03-06T04:27:34.558Z,6.60
2023-03-06T04:37:34.867Z,8.20
2023-03-06T04:47:35.178Z,6.70
2023-03-06T04:57:35.529Z,7.20
2023-03-06T05:07:36.008Z,8.00
2023-03-06T05:17:36.145Z,6.90
2023-03-06T05:27:36.470Z,8.10
2023-03-06T05:37:36.791Z,7.40
2023-03-06T05:47:37.126Z,8.10
2023-03-06T05:57:37.358Z,8.80
2023-03-06T06:07:37.746Z,11.30
2023-03-06T06:09:07.046Z,11.30
2023-03-06T06:17:38.247Z,10.60
2023-03-06T06:27:38.298Z,12.90
2023-03-06T06:37:38.508Z,11.50
2023-03-06T06:47:38.818Z,11.60
2023-03-06T06:57:39.050Z,11.10
2023-03-06T07:07:39.042Z,9.60
2023-03-06T07:17:39.294Z,12.00
2023-03-06T07:27:39.401Z,10.50
2023-03-06T07:37:39.560Z,10.40
2023-03-06T08:07:40.009Z,11.60
2023-03-06T08:17:40.350Z,11.00
2023-03-06T08:27:40.645Z,11.80
2023-03-06T08:37:40.901Z,12.30
2023-03-06T08:47:41.234Z,11.70
2023-03-06T08:57:41.275Z,12.70
2023-03-06T09:07:41.510Z,11.70
2023-03-06T09:17:43.122Z,11.10
2023-03-06T09:27:42.303Z,11.00
2023-03-06T09:37:42.580Z,10.50
2023-03-06T09:47:43.146Z,11.10
2023-03-06T09:57:43.543Z,12.00
2023-03-06T10:07:43.637Z,10.80
2023-03-06T10:17:44.096Z,11.50
2023-03-06T10:27:44.528Z,12.10
2023-03-06T10:37:46.332Z,11.90
2023-03-06T10:47:45.308Z,12.70
2023-03-06T11:07:46.289Z,14.80
2023-03-06T11:17:46.586Z,16.20
2023-03-06T11:27:46.867Z,13.00
2023-03-06T11:37:47.266Z,12.90
2023-03-06T11:47:47.705Z,14.60
2023-03-06T11:57:48.151Z,12.50
2023-03-06T12:07:48.714Z,13.40
2023-03-06T12:17:49.245Z,14.90
2023-03-06T12:27:49.881Z,14.00
2023-03-06T12:37:50.254Z,15.50
2023-03-06T12:47:50.765Z,16.40
2023-03-06T12:57:51.535Z,15.70
2023-03-06T13:07:52.123Z,13.60
2023-03-06T13:17:52.385Z,14.40
2023-03-06T13:27:53.012Z,17.50
2023-03-06T13:37:53.238Z,15.20
2023-03-06T13:48:15.621Z,15.70
2023-03-06T13:57:54.104Z,18.00
2023-03-06T14:07:54.480Z,19.00
2023-03-06T14:17:54.879Z,16.40
2023-03-06T14:28:00.383Z,16.80
2023-03-06T14:37:55.851Z,16.90
2023-03-06T14:47:56.152Z,16.50
2023-03-06T14:57:56.567Z,15.00
2023-03-06T15:07:57.281Z,15.60
2023-03-06T15:17:59.444Z,15.40
2023-03-06T15:27:57.774Z,15.90
2023-03-06T15:37:58.155Z,14.70
2023-03-06T15:47:58.605Z,15.90
2023-03-06T15:58:01.063Z,15.40
2023-03-06T16:07:59.575Z,16.20
2023-03-06T16:17:59.924Z,15.30
2023-03-06T16:28:00.515Z,16.80
2023-03-06T16:38:02.696Z,15.70
2023-03-06T16:48:00.994Z,15.40
2023-03-06T16:58:01.362Z,16.40
2023-03-06T17:08:03.798Z,17.90
2023-03-06T17:18:04.158Z,16.40
2023-03-06T17:28:02.782Z,17.50
2023-03-06T17:38:02.983Z,18.30
2023-03-06T17:48:03.789Z,20.80
2023-03-06T17:58:03.940Z,16.20
2023-03-06T18:08:06.107Z,16.30
2023-03-06T18:18:04.762Z,17.10
2023-03-06T18:28:06.197Z,16.30
2023-03-06T18:38:06.243Z,20.80
2023-03-06T18:48:05.983Z,20.40
2023-03-06T18:58:06.382Z,17.70
2023-03-06T19:08:06.721Z,16.40
2023-03-06T19:18:08.273Z,16.60
2023-03-06T19:28:07.940Z,16.80
2023-03-06T19:38:07.948Z,17.60
2023-03-06T19:48:08.398Z,18.00
2023-03-06T19:58:09.138Z,17.20
2023-03-06T20:08:09.132Z,15.10
2023-03-06T20:18:09.714Z,17.80
2023-03-06T20:28:09.905Z,17.70
2023-03-06T20:38:09.976Z,17.90
2023-03-06T20:48:10.448Z,19.70
2023-03-06T20:58:11.528Z,21.00
2023-03-06T21:08:11.291Z,22.00
2023-03-06T21:18:11.327Z,21.70
2023-03-06T21:28:11.556Z,21.40
2023-03-06T21:38:11.850Z,21.50
2023-03-06T21:48:12.183Z,20.00
2023-03-06T21:58:12.554Z,19.50
2023-03-06T22:08:12.968Z,21.60
2023-03-06T22:18:13.319Z,29.10
2023-03-06T22:28:13.621Z,21.30
2023-03-06T22:38:13.918Z,24.00
2023-03-06T22:48:14.214Z,24.50
2023-03-06T22:58:14.526Z,25.40
2023-03-06T23:08:15.152Z,29.30
2023-03-06T23:18:15.196Z,33.20
2023-03-06T23:28:15.758Z,35.40
2023-03-06T23:38:15.726Z,40.70
2023-03-06T23:48:16.017Z,33.90
2023-03-06T23:58:16.204Z,32.40
